createdAt,value
2022-08-01T00:00:09.311Z,26.80
2022-08-01T00:02:39.539Z,26.80
2022-08-01T00:05:07.785Z,26.80
2022-08-01T00:07:35.626Z,26.80
2022-08-01T00:10:06.869Z,26.80
2022-08-01T00:12:33.665Z,26.70
2022-08-01T00:15:00.711Z,26.70
2022-08-01T00:17:27.446Z,26.70
2022-08-01T00:19:54.168Z,26.60
2022-08-01T00:22:20.965Z,26.60
2022-08-01T00:24:47.805Z,26.60
2022-08-01T00:27:14.633Z,26.60
2022-08-01T00:30:12.477Z,26.50
2022-08-01T00:32:30.644Z,26.50
2022-08-01T00:34:57.424Z,26.50
2022-08-01T00:37:24.207Z,26.40
2022-08-01T00:39:50.889Z,26.40
2022-08-01T00:42:17.628Z,26.40
2022-08-01T00:44:44.459Z,26.30
2022-08-01T00:47:11.217Z,26.30
2022-08-01T00:49:38.061Z,26.30
2022-08-01T00:52:07.019Z,26.30
2022-08-01T00:54:34.211Z,26.30
2022-08-01T00:57:01.175Z,26.30
2022-08-01T00:59:28.337Z,26.20
2022-08-01T01:01:55.388Z,26.30
2022-08-01T01:04:23.132Z,26.20
2022-08-01T01:06:58.523Z,26.20
2022-08-01T01:09:25.416Z,26.20
2022-08-01T01:12:04.414Z,26.20
2022-08-01T01:14:39.624Z,26.20
2022-08-01T01:17:10.091Z,26.10
2022-08-01T01:19:45.182Z,26.10
2022-08-01T01:22:49.449Z,26.10
2022-08-01T01:25:25.488Z,26.00
2022-08-01T01:28:03.926Z,26.00
2022-08-01T01:30:33.869Z,25.90
2022-08-01T01:33:06.626Z,25.90
2022-08-01T01:35:37.581Z,25.90
2022-08-01T01:38:20.768Z,25.90
2022-08-01T01:40:49.859Z,25.90
2022-08-01T01:43:18.859Z,25.90
2022-08-01T01:45:48.015Z,25.90
2022-08-01T01:48:17.798Z,25.90
2022-08-01T01:50:47.195Z,25.90
2022-08-01T01:53:16.214Z,25.90
2022-08-01T01:55:49.422Z,25.90
2022-08-01T01:58:18.512Z,25.90
2022-08-01T02:00:47.787Z,25.80
2022-08-01T02:03:15.758Z,25.80
2022-08-01T02:05:43.482Z,25.80
2022-08-01T02:08:12.578Z,25.80
2022-08-01T02:10:41.585Z,25.80
2022-08-01T02:13:09.701Z,25.80
2022-08-01T02:15:59.207Z,25.80
2022-08-01T02:18:27.305Z,25.80
2022-08-01T02:20:56.670Z,25.70
2022-08-01T02:23:28.132Z,25.70
2022-08-01T02:26:09.402Z,25.70
2022-08-01T02:28:54.015Z,25.70
2022-08-01T02:31:23.119Z,25.60
2022-08-01T02:34:06.515Z,25.60
2022-08-01T02:36:36.378Z,25.60
2022-08-01T02:39:08.977Z,25.50
2022-08-01T02:41:41.800Z,25.50
2022-08-01T02:44:11.749Z,25.50
2022-08-01T02:46:44.403Z,25.50
2022-08-01T02:49:13.676Z,25.40
2022-08-01T02:51:41.905Z,25.40
2022-08-01T02:54:09.668Z,25.40
2022-08-01T02:56:37.539Z,25.30
2022-08-01T02:59:13.729Z,25.30
2022-08-01T03:01:44.068Z,25.30
2022-08-01T03:04:11.757Z,25.30
2022-08-01T03:06:40.074Z,25.30
2022-08-01T03:09:10.846Z,25.20
2022-08-01T03:11:40.778Z,25.20
2022-08-01T03:14:10.093Z,25.20
2022-08-01T03:16:39.688Z,25.20
2022-08-01T03:19:09.511Z,25.20
2022-08-01T03:21:38.174Z,25.10
2022-08-01T03:24:06.969Z,25.10
2022-08-01T03:26:37.105Z,25.10
2022-08-01T03:29:07.671Z,25.10
2022-08-01T03:31:39.258Z,25.10
2022-08-01T03:34:07.154Z,25.00
2022-08-01T03:36:35.623Z,25.00
2022-08-01T03:39:06.080Z,25.00
2022-08-01T03:41:39.001Z,25.00
2022-08-01T03:44:11.161Z,25.00
2022-08-01T03:46:44.338Z,24.90
2022-08-01T03:49:22.466Z,24.90
2022-08-01T03:51:51.874Z,24.80
2022-08-01T03:54:24.494Z,24.80
2022-08-01T03:56:52.765Z,24.80
2022-08-01T03:59:21.017Z,24.80
2022-08-01T04:01:48.713Z,24.80
2022-08-01T04:04:15.810Z,24.80
2022-08-01T04:06:44.845Z,24.70
2022-08-01T04:09:13.747Z,24.80
2022-08-01T04:11:41.844Z,24.70
2022-08-01T04:14:09.348Z,24.80
2022-08-01T04:16:36.497Z,24.70
2022-08-01T04:19:03.502Z,24.70
2022-08-01T04:21:33.411Z,24.70
2022-08-01T04:24:06.027Z,24.70
2022-08-01T04:26:35.688Z,24.70
2022-08-01T04:29:05.875Z,24.60
2022-08-01T04:31:33.688Z,24.60
2022-08-01T04:34:02.740Z,24.60
2022-08-01T04:36:30.925Z,24.60
2022-08-01T04:39:02.277Z,24.60
2022-08-01T04:41:30.729Z,24.60
2022-08-01T04:44:00.250Z,24.60
2022-08-01T04:46:29.377Z,24.60
2022-08-01T04:48:57.167Z,24.60
2022-08-01T04:51:24.086Z,24.60
2022-08-01T04:53:52.147Z,24.60
2022-08-01T04:56:22.114Z,24.60
2022-08-01T04:58:49.146Z,24.60
2022-08-01T05:01:16.629Z,24.70
2022-08-01T05:03:43.496Z,24.70
2022-08-01T05:06:10.332Z,24.70
2022-08-01T05:08:37.241Z,24.80
2022-08-01T05:11:04.402Z,24.70
2022-08-01T05:13:31.489Z,24.80
2022-08-01T05:15:58.279Z,24.70
2022-08-01T05:18:27.962Z,24.70
2022-08-01T05:20:55.632Z,24.70
2022-08-01T05:23:42.579Z,24.70
2022-08-01T05:26:09.422Z,24.70
2022-08-01T05:28:36.324Z,24.70
2022-08-01T05:31:04.290Z,24.60
2022-08-01T05:33:31.045Z,24.70
2022-08-01T05:35:57.787Z,24.70
2022-08-01T05:38:24.506Z,24.70
2022-08-01T05:40:51.262Z,24.80
2022-08-01T05:43:18.020Z,24.80
2022-08-01T05:45:45.532Z,24.90
2022-08-01T05:48:12.415Z,24.90
2022-08-01T05:50:39.194Z,24.90
2022-08-01T05:53:05.897Z,25.00
2022-08-01T05:55:32.774Z,25.00
2022-08-01T05:57:59.689Z,25.10
2022-08-01T06:00:26.796Z,25.10
2022-08-01T06:02:53.984Z,25.10
2022-08-01T06:05:20.968Z,25.20
2022-08-01T06:07:47.903Z,25.20
2022-08-01T06:10:14.732Z,25.30
2022-08-01T06:12:41.677Z,25.40
2022-08-01T06:15:08.978Z,25.50
2022-08-01T06:17:35.894Z,25.50
2022-08-01T06:20:02.828Z,25.50
2022-08-01T06:22:29.613Z,25.60
2022-08-01T06:24:57.707Z,25.60
2022-08-01T06:27:25.906Z,25.60
2022-08-01T06:29:54.551Z,25.70
2022-08-01T06:32:27.288Z,25.70
2022-08-01T06:34:55.763Z,25.70
2022-08-01T06:37:23.328Z,25.70
2022-08-01T06:39:50.964Z,25.80
2022-08-01T06:42:18.566Z,25.80
2022-08-01T06:44:45.910Z,25.80
2022-08-01T06:47:12.785Z,25.90
2022-08-01T06:49:39.635Z,25.90
2022-08-01T06:52:06.691Z,26.00
2022-08-01T06:54:33.711Z,26.00
2022-08-01T06:57:00.478Z,26.10
2022-08-01T06:59:27.259Z,26.10
2022-08-01T07:01:54.163Z,26.10
2022-08-01T07:04:20.911Z,26.10
2022-08-01T07:06:47.688Z,26.10
2022-08-01T07:09:14.870Z,26.20
2022-08-01T07:11:42.095Z,26.20
2022-08-01T07:14:09.167Z,26.20
2022-08-01T07:16:36.179Z,26.30
2022-08-01T07:19:03.368Z,26.30
2022-08-01T07:21:40.207Z,26.30
2022-08-01T07:24:13.946Z,26.30
2022-08-01T07:26:53.692Z,26.30
2022-08-01T07:29:23.117Z,26.40
2022-08-01T07:31:49.939Z,26.40
2022-08-01T07:34:16.724Z,26.40
2022-08-01T07:36:43.743Z,26.40
2022-08-01T07:39:10.553Z,26.40
2022-08-01T07:41:53.083Z,26.50
2022-08-01T07:44:24.299Z,26.50
2022-08-01T07:46:55.064Z,26.50
2022-08-01T07:49:22.802Z,26.50
2022-08-01T07:52:03.407Z,26.60
2022-08-01T07:54:33.396Z,26.60
2022-08-01T07:57:02.073Z,26.60
2022-08-01T07:59:28.863Z,26.70
2022-08-01T08:01:55.766Z,26.60
2022-08-01T08:04:22.904Z,26.60
2022-08-01T08:06:50.195Z,26.70
2022-08-01T08:09:17.296Z,26.70
2022-08-01T08:11:48.441Z,26.80
2022-08-01T08:14:16.828Z,26.80
2022-08-01T08:16:44.779Z,26.90
2022-08-01T08:19:12.486Z,26.80
2022-08-01T08:21:40.033Z,26.80
2022-08-01T08:24:26.255Z,26.80
2022-08-01T08:26:59.718Z,26.90
2022-08-01T08:29:28.016Z,26.90
2022-08-01T08:31:58.651Z,26.90
2022-08-01T08:34:26.830Z,27.00
2022-08-01T08:36:54.404Z,27.00
2022-08-01T08:39:21.365Z,27.00
2022-08-01T08:41:49.947Z,27.00
2022-08-01T08:44:18.063Z,27.00
2022-08-01T08:46:50.117Z,27.00
2022-08-01T08:49:20.688Z,27.10
2022-08-01T08:51:50.660Z,27.20
2022-08-01T08:54:20.637Z,27.20
2022-08-01T08:56:48.148Z,27.20
2022-08-01T08:59:15.230Z,27.20
2022-08-01T09:01:43.333Z,27.20
2022-08-01T09:04:10.995Z,27.20
2022-08-01T09:06:38.454Z,27.20
2022-08-01T09:09:06.459Z,27.20
2022-08-01T09:11:34.261Z,27.20
2022-08-01T09:14:06.852Z,27.20
2022-08-01T09:16:35.660Z,27.30
2022-08-01T09:19:39.731Z,27.30
2022-08-01T09:22:09.517Z,27.30
2022-08-01T09:24:37.386Z,27.20
2022-08-01T09:27:26.426Z,27.20
2022-08-01T09:30:00.575Z,27.20
2022-08-01T09:32:35.881Z,27.30
2022-08-01T09:35:30.925Z,27.40
2022-08-01T09:38:15.822Z,27.50
2022-08-01T09:40:49.404Z,27.50
2022-08-01T09:43:16.484Z,27.50
2022-08-01T09:45:45.698Z,27.50
2022-08-01T09:48:18.688Z,27.60
2022-08-01T09:50:47.685Z,27.70
2022-08-01T09:53:24.462Z,27.70
2022-08-01T09:56:12.899Z,27.80
2022-08-01T09:59:00.589Z,27.80
2022-08-01T10:01:36.017Z,27.80
2022-08-01T10:04:26.595Z,27.90
2022-08-01T10:07:06.022Z,28.00
2022-08-01T10:09:40.276Z,27.90
2022-08-01T10:12:09.164Z,27.90
2022-08-01T10:14:46.336Z,27.90
2022-08-01T10:17:18.312Z,28.00
2022-08-01T10:19:47.719Z,28.00
2022-08-01T10:22:17.653Z,28.10
2022-08-01T10:24:47.151Z,28.20
2022-08-01T10:27:17.265Z,28.20
2022-08-01T10:30:05.505Z,28.20
2022-08-01T10:32:39.656Z,28.20
2022-08-01T10:35:14.855Z,28.30
2022-08-01T10:37:52.253Z,28.30
2022-08-01T10:40:35.597Z,28.30
2022-08-01T10:43:03.644Z,28.30
2022-08-01T10:45:31.664Z,28.40
2022-08-01T10:48:23.454Z,28.50
2022-08-01T10:50:55.119Z,28.50
2022-08-01T10:53:31.131Z,28.60
2022-08-01T10:56:13.047Z,28.70
2022-08-01T10:58:45.275Z,28.70
2022-08-01T11:01:18.215Z,28.70
2022-08-01T11:04:01.060Z,28.60
2022-08-01T11:06:34.289Z,28.70
2022-08-01T11:09:16.222Z,28.80
2022-08-01T11:12:08.201Z,29.00
2022-08-01T11:14:59.487Z,29.00
2022-08-01T11:17:45.257Z,29.10
2022-08-01T11:20:17.609Z,29.30
2022-08-01T11:23:04.678Z,29.50
2022-08-01T11:26:03.897Z,29.70
2022-08-01T11:28:32.322Z,29.90
2022-08-01T11:31:13.768Z,30.10
2022-08-01T11:33:45.992Z,30.10
2022-08-01T11:36:42.582Z,30.20
2022-08-01T11:39:13.273Z,30.50
2022-08-01T11:41:42.101Z,30.70
2022-08-01T11:44:49.128Z,30.70
2022-08-01T11:47:16.867Z,30.90
2022-08-01T11:49:50.438Z,31.00
2022-08-01T11:52:32.746Z,31.10
2022-08-01T11:55:11.325Z,31.20
2022-08-01T11:57:39.318Z,31.30
2022-08-01T12:00:16.894Z,31.40
2022-08-01T12:02:46.850Z,31.20
2022-08-01T12:05:17.718Z,31.10
2022-08-01T12:07:47.283Z,31.10
2022-08-01T12:10:16.271Z,31.10
2022-08-01T12:12:52.383Z,31.00
2022-08-01T12:15:21.159Z,31.00
2022-08-01T12:17:58.224Z,30.90
2022-08-01T12:20:34.618Z,31.00
2022-08-01T12:23:04.137Z,31.20
2022-08-01T12:25:31.017Z,31.40
2022-08-01T12:28:05.009Z,31.40
2022-08-01T12:30:36.205Z,31.50
2022-08-01T12:33:07.974Z,31.60
2022-08-01T12:35:37.435Z,31.70
2022-08-01T12:38:15.169Z,31.70
2022-08-01T12:40:45.538Z,31.70
2022-08-01T12:43:27.327Z,31.80
2022-08-01T12:45:59.301Z,32.10
2022-08-01T12:48:26.889Z,32.20
2022-08-01T12:50:56.882Z,32.30
2022-08-01T12:53:24.051Z,32.40
2022-08-01T12:55:58.648Z,32.30
2022-08-01T12:58:33.496Z,32.30
2022-08-01T13:01:09.211Z,32.50
2022-08-01T13:03:36.374Z,32.70
2022-08-01T13:06:12.012Z,32.60
2022-08-01T13:08:39.593Z,32.30
2022-08-01T13:11:18.204Z,32.20
2022-08-01T13:13:51.052Z,32.20
2022-08-01T13:16:30.713Z,32.00
2022-08-01T13:19:06.858Z,31.80
2022-08-01T13:21:53.010Z,31.80
2022-08-01T13:24:39.144Z,32.00
2022-08-01T13:27:06.394Z,32.40
2022-08-01T13:29:39.035Z,32.50
2022-08-01T13:32:27.660Z,32.60
2022-08-01T13:35:03.662Z,32.90
2022-08-01T13:37:30.364Z,32.90
2022-08-01T13:39:59.212Z,32.80
2022-08-01T13:42:26.159Z,32.80
2022-08-01T13:44:52.973Z,32.80
2022-08-01T13:47:19.711Z,32.60
2022-08-01T13:50:01.693Z,32.40
2022-08-01T13:52:29.438Z,32.20
2022-08-01T13:54:56.289Z,32.20
2022-08-01T13:57:23.216Z,32.40
2022-08-01T13:59:50.119Z,32.40
2022-08-01T14:02:16.934Z,32.40
2022-08-01T14:04:43.733Z,32.40
2022-08-01T14:07:14.396Z,32.20
2022-08-01T14:10:04.550Z,32.10
2022-08-01T14:12:29.973Z,32.10
2022-08-01T14:14:57.421Z,32.30
2022-08-01T14:17:24.454Z,32.50
2022-08-01T14:19:51.380Z,32.80
2022-08-01T14:22:18.147Z,33.00
2022-08-01T14:24:44.920Z,33.00
2022-08-01T14:27:11.818Z,33.00
2022-08-01T14:30:03.028Z,32.90
2022-08-01T14:32:28.509Z,32.90
2022-08-01T14:34:57.133Z,32.90
2022-08-01T14:37:29.138Z,32.90
2022-08-01T14:39:58.809Z,33.10
2022-08-01T14:42:26.746Z,33.10
2022-08-01T14:44:53.551Z,33.10
2022-08-01T14:47:21.615Z,33.10
2022-08-01T14:49:50.190Z,33.10
2022-08-01T14:52:17.466Z,33.20
2022-08-01T14:54:44.305Z,33.20
2022-08-01T14:57:13.084Z,33.30
2022-08-01T14:59:40.099Z,33.30
2022-08-01T15:02:07.200Z,33.40
2022-08-01T15:04:34.069Z,33.60
2022-08-01T15:07:00.987Z,33.40
2022-08-01T15:09:27.801Z,33.40
2022-08-01T15:11:54.511Z,33.30
2022-08-01T15:14:39.919Z,33.00
2022-08-01T15:17:08.695Z,32.80
2022-08-01T15:19:38.994Z,32.60
2022-08-01T15:22:08.885Z,32.50
2022-08-01T15:24:35.948Z,32.40
2022-08-01T15:27:03.179Z,32.40
2022-08-01T15:29:30.052Z,32.50
2022-08-01T15:31:56.764Z,32.50
2022-08-01T15:34:24.118Z,32.60
2022-08-01T15:36:51.070Z,32.50
2022-08-01T15:39:18.043Z,32.40
2022-08-01T15:41:45.017Z,32.40
2022-08-01T15:44:11.737Z,32.50
2022-08-01T15:46:38.458Z,32.60
2022-08-01T15:49:06.256Z,32.70
2022-08-01T15:51:33.579Z,32.70
2022-08-01T15:54:03.846Z,32.60
2022-08-01T15:56:31.099Z,32.40
2022-08-01T15:58:58.526Z,32.30
2022-08-01T16:01:27.019Z,32.30
2022-08-01T16:03:55.229Z,32.10
2022-08-01T16:06:22.642Z,31.90
2022-08-01T16:08:49.829Z,31.80
2022-08-01T16:11:17.725Z,31.80
2022-08-01T16:13:44.557Z,31.70
2022-08-01T16:16:12.625Z,31.60
2022-08-01T16:18:39.649Z,31.60
2022-08-01T16:21:07.853Z,31.50
2022-08-01T16:23:34.800Z,31.40
2022-08-01T16:26:01.990Z,31.40
2022-08-01T16:28:28.788Z,31.40
2022-08-01T16:31:11.028Z,31.40
2022-08-01T16:33:51.687Z,31.40
2022-08-01T16:36:21.201Z,31.30
2022-08-01T16:38:48.161Z,31.20
2022-08-01T16:41:19.714Z,31.10
2022-08-01T16:43:53.786Z,31.10
2022-08-01T16:46:22.357Z,31.10
2022-08-01T16:48:49.230Z,31.00
2022-08-01T16:51:16.278Z,30.90
2022-08-01T16:53:43.100Z,30.80
2022-08-01T16:56:09.889Z,30.70
2022-08-01T16:58:36.929Z,30.70
2022-08-01T17:01:58.060Z,30.60
2022-08-01T17:03:51.581Z,30.50
2022-08-01T17:06:20.710Z,30.50
2022-08-01T17:08:49.931Z,30.50
2022-08-01T17:11:16.990Z,30.40
2022-08-01T17:13:43.891Z,30.40
2022-08-01T17:16:11.530Z,30.40
2022-08-01T17:18:38.353Z,30.40
2022-08-01T17:21:05.247Z,30.30
2022-08-01T17:23:32.447Z,30.30
2022-08-01T17:25:59.792Z,30.30
2022-08-01T17:28:26.800Z,30.30
2022-08-01T17:30:53.857Z,30.30
2022-08-01T17:33:21.264Z,30.30
2022-08-01T17:35:48.112Z,30.20
2022-08-01T17:38:14.985Z,30.20
2022-08-01T17:40:41.994Z,30.20
2022-08-01T17:43:09.027Z,30.10
2022-08-01T17:45:39.328Z,30.10
2022-08-01T17:48:18.088Z,30.00
2022-08-01T17:50:46.264Z,30.00
2022-08-01T17:53:14.339Z,30.00
2022-08-01T17:55:54.484Z,30.00
2022-08-01T17:58:48.836Z,29.90
2022-08-01T18:01:16.155Z,29.90
2022-08-01T18:03:43.936Z,29.80
2022-08-01T18:06:13.828Z,29.80
2022-08-01T18:08:41.983Z,29.80
2022-08-01T18:11:09.450Z,29.70
2022-08-01T18:13:36.603Z,29.50
2022-08-01T18:16:09.262Z,29.50
2022-08-01T18:18:36.657Z,29.50
2022-08-01T18:21:04.227Z,29.50
2022-08-01T18:23:33.534Z,29.50
2022-08-01T18:26:02.352Z,29.50
2022-08-01T18:28:34.141Z,29.40
2022-08-01T18:31:03.876Z,29.40
2022-08-01T18:33:30.860Z,29.40
2022-08-01T18:36:01.909Z,29.30
2022-08-01T18:38:32.224Z,29.30
2022-08-01T18:41:00.843Z,29.30
2022-08-01T18:43:28.208Z,29.30
2022-08-01T18:45:57.307Z,29.30
2022-08-01T18:48:24.513Z,29.30
2022-08-01T18:50:52.327Z,29.20
2022-08-01T18:53:20.802Z,29.20
2022-08-01T18:55:47.562Z,29.20
2022-08-01T18:58:14.443Z,29.20
2022-08-01T19:00:42.235Z,29.20
2022-08-01T19:03:09.732Z,29.20
2022-08-01T19:05:37.412Z,29.20
2022-08-01T19:08:07.575Z,29.20
2022-08-01T19:10:36.277Z,29.10
2022-08-01T19:13:03.317Z,29.10
2022-08-01T19:15:30.280Z,29.10
2022-08-01T19:17:57.457Z,29.10
2022-08-01T19:20:24.367Z,29.00
2022-08-01T19:22:51.186Z,29.00
2022-08-01T19:25:18.115Z,28.90
2022-08-01T19:27:49.070Z,28.90
2022-08-01T19:30:17.548Z,28.90
2022-08-01T19:32:46.644Z,28.80
2022-08-01T19:35:17.015Z,28.80
2022-08-01T19:37:47.164Z,28.80
2022-08-01T19:40:27.288Z,28.70
2022-08-01T19:42:55.522Z,28.80
2022-08-01T19:45:22.895Z,28.70
2022-08-01T19:47:56.207Z,28.70
2022-08-01T19:50:28.448Z,28.60
2022-08-01T19:53:04.031Z,28.60
2022-08-01T19:55:35.170Z,28.60
2022-08-01T19:58:26.239Z,28.50
2022-08-01T20:00:55.091Z,28.50
2022-08-01T20:03:22.937Z,28.50
2022-08-01T20:05:51.289Z,28.50
2022-08-01T20:08:19.909Z,28.50
2022-08-01T20:10:48.651Z,28.50
2022-08-01T20:13:17.181Z,28.50
2022-08-01T20:15:45.119Z,28.40
2022-08-01T20:18:12.037Z,28.40
2022-08-01T20:20:39.094Z,28.30
2022-08-01T20:23:10.146Z,28.20
2022-08-01T20:25:39.788Z,28.20
2022-08-01T20:28:10.948Z,28.00
2022-08-01T20:30:42.079Z,27.90
2022-08-01T20:33:11.351Z,27.80
2022-08-01T20:35:51.884Z,27.70
2022-08-01T20:38:23.934Z,27.70
2022-08-01T20:40:55.091Z,27.70
2022-08-01T20:43:22.579Z,27.60
2022-08-01T20:45:51.374Z,27.40
2022-08-01T20:48:19.156Z,27.30
2022-08-01T20:51:05.145Z,27.20
2022-08-01T20:53:36.727Z,27.20
2022-08-01T20:56:23.103Z,27.10
2022-08-01T20:59:00.336Z,27.00
2022-08-01T21:01:29.429Z,27.00
2022-08-01T21:04:09.090Z,26.90
2022-08-01T21:06:45.089Z,26.90
2022-08-01T21:09:18.488Z,26.80
2022-08-01T21:12:15.581Z,26.80
2022-08-01T21:14:55.231Z,26.80
2022-08-01T21:17:36.003Z,26.70
2022-08-01T21:20:07.696Z,26.70
2022-08-01T21:23:00.677Z,26.60
2022-08-01T21:25:32.896Z,26.50
2022-08-01T21:28:01.393Z,26.40
2022-08-01T21:30:32.527Z,26.40
2022-08-01T21:33:00.219Z,26.20
2022-08-01T21:35:27.600Z,26.20
2022-08-01T21:37:57.259Z,26.10
2022-08-01T21:40:24.578Z,26.00
2022-08-01T21:42:53.380Z,26.00
2022-08-01T21:45:23.582Z,26.00
2022-08-01T21:47:51.334Z,25.90
2022-08-01T21:50:18.789Z,25.80
2022-08-01T21:52:46.790Z,25.80
2022-08-01T21:55:35.561Z,25.60
2022-08-01T21:58:33.478Z,25.60
2022-08-01T22:01:16.764Z,25.50
2022-08-01T22:03:48.825Z,25.50
2022-08-01T22:06:19.005Z,25.50
2022-08-01T22:08:51.351Z,25.50
2022-08-01T22:11:25.561Z,25.50
2022-08-01T22:13:55.239Z,25.50
2022-08-01T22:16:22.266Z,25.40
2022-08-01T22:18:49.460Z,25.40
2022-08-01T22:21:17.330Z,25.30
2022-08-01T22:23:44.564Z,25.30
2022-08-01T22:26:12.223Z,25.30
2022-08-01T22:28:40.431Z,25.20
2022-08-01T22:31:07.410Z,25.20
2022-08-01T22:33:39.152Z,25.20
2022-08-01T22:36:07.472Z,25.20
2022-08-01T22:38:34.729Z,25.10
2022-08-01T22:41:04.710Z,25.00
2022-08-01T22:43:52.546Z,24.90
2022-08-01T22:46:31.011Z,24.80
2022-08-01T22:49:21.555Z,24.80
2022-08-01T22:51:54.626Z,24.80
2022-08-01T22:54:28.866Z,24.90
2022-08-01T22:56:57.204Z,24.80
2022-08-01T22:59:48.029Z,24.80
2022-08-01T23:02:17.204Z,24.80
2022-08-01T23:04:47.482Z,24.80
2022-08-01T23:07:24.015Z,24.70
2022-08-01T23:09:55.495Z,24.70
2022-08-01T23:12:27.481Z,24.80
2022-08-01T23:14:59.180Z,25.00
2022-08-01T23:17:29.146Z,25.00
2022-08-01T23:20:05.850Z,25.10
2022-08-01T23:22:36.479Z,25.10
2022-08-01T23:25:06.829Z,25.10
2022-08-01T23:27:54.396Z,25.20
2022-08-01T23:30:31.403Z,25.20
2022-08-01T23:32:58.360Z,25.10
2022-08-01T23:35:25.924Z,25.00
2022-08-01T23:37:58.363Z,25.00
2022-08-01T23:40:29.013Z,24.90
2022-08-01T23:42:56.021Z,24.80
2022-08-01T23:45:23.421Z,24.70
2022-08-01T23:47:50.630Z,24.70
2022-08-01T23:50:17.395Z,24.70
2022-08-01T23:52:48.514Z,24.60
2022-08-01T23:55:17.064Z,24.60
2022-08-01T23:57:44.421Z,24.60
